createdAt,value
2023-03-20T00:01:56.677Z,2.87
2023-03-20T00:04:23.439Z,3.20
2023-03-20T00:06:50.286Z,2.63
2023-03-20T00:09:17.989Z,2.80
2023-03-20T00:11:53.400Z,2.90
2023-03-20T00:14:22.604Z,2.40
2023-03-20T00:16:50.684Z,3.00
2023-03-20T00:19:24.453Z,2.67
2023-03-20T00:21:53.179Z,3.00
2023-03-20T00:24:20.143Z,2.90
2023-03-20T00:26:49.417Z,2.43
2023-03-20T00:29:27.825Z,3.00
2023-03-20T00:31:55.425Z,2.70
2023-03-20T00:34:27.277Z,2.50
2023-03-20T00:36:54.392Z,2.40
2023-03-20T00:39:22.000Z,3.70
2023-03-20T00:41:52.883Z,2.50
2023-03-20T00:44:41.894Z,2.37
2023-03-20T00:47:18.879Z,2.40
2023-03-20T00:49:49.920Z,3.20
2023-03-20T00:52:18.895Z,2.50
2023-03-20T00:54:45.702Z,2.80
2023-03-20T00:57:24.247Z,3.10
2023-03-20T01:00:01.474Z,2.80
2023-03-20T01:02:29.482Z,2.53
2023-03-20T01:04:56.657Z,2.03
2023-03-20T01:07:23.526Z,2.87
2023-03-20T01:09:50.640Z,3.27
2023-03-20T01:12:17.496Z,2.60
2023-03-20T01:14:44.636Z,2.83
2023-03-20T01:17:19.876Z,2.80
2023-03-20T01:19:47.704Z,2.70
2023-03-20T01:22:14.508Z,2.33
2023-03-20T01:24:41.386Z,2.70
2023-03-20T01:27:14.812Z,3.10
2023-03-20T01:29:42.163Z,2.93
2023-03-20T01:32:13.603Z,2.57
2023-03-20T01:34:40.656Z,2.57
2023-03-20T01:37:13.723Z,2.53
2023-03-20T01:39:40.796Z,2.63
2023-03-20T01:42:07.815Z,2.10
2023-03-20T01:44:36.235Z,2.43
2023-03-20T01:47:12.423Z,4.27
2023-03-20T01:50:16.923Z,3.33
2023-03-20T01:52:43.794Z,2.50
2023-03-20T01:55:10.946Z,2.90
2023-03-20T01:57:38.434Z,3.30
2023-03-20T02:00:10.275Z,3.10
2023-03-20T02:02:39.619Z,2.93
2023-03-20T02:05:11.433Z,2.63
2023-03-20T02:07:39.397Z,2.70
2023-03-20T02:10:10.768Z,3.10
2023-03-20T02:12:38.840Z,2.77
2023-03-20T02:15:07.646Z,2.93
2023-03-20T02:17:34.644Z,2.83
2023-03-20T02:20:51.891Z,3.17
2023-03-20T02:23:36.703Z,3.10
2023-03-20T02:26:29.858Z,3.20
2023-03-20T02:29:23.677Z,3.07
2023-03-20T02:32:13.158Z,2.90
2023-03-20T02:34:54.978Z,2.53
2023-03-20T02:37:30.949Z,2.80
2023-03-20T02:40:04.618Z,3.00
2023-03-20T02:42:58.246Z,3.13
2023-03-20T02:45:52.235Z,2.80
2023-03-20T02:48:36.978Z,2.60
2023-03-20T02:51:17.560Z,2.97
2023-03-20T02:54:05.565Z,3.07
2023-03-20T02:57:07.204Z,2.93
2023-03-20T02:59:44.627Z,2.73
2023-03-20T03:02:20.391Z,3.33
2023-03-20T03:04:58.547Z,2.80
2023-03-20T03:07:28.719Z,3.67
2023-03-20T03:10:17.449Z,3.27
2023-03-20T03:12:48.399Z,3.70
2023-03-20T03:15:29.850Z,2.77
2023-03-20T03:17:58.384Z,2.87
2023-03-20T03:20:33.209Z,3.07
2023-03-20T03:23:00.547Z,3.13
2023-03-20T03:25:31.379Z,3.33
2023-03-20T03:28:37.600Z,3.33
2023-03-20T03:31:08.449Z,3.07
2023-03-20T03:33:39.286Z,3.23
2023-03-20T03:36:33.608Z,3.43
2023-03-20T03:39:24.411Z,3.60
2023-03-20T03:42:01.422Z,3.17
2023-03-20T03:44:41.959Z,3.47
2023-03-20T03:47:22.886Z,2.70
2023-03-20T03:49:55.779Z,3.37
2023-03-20T03:52:24.568Z,2.30
2023-03-20T03:55:02.196Z,3.63
2023-03-20T03:57:35.039Z,4.00
2023-03-20T04:00:06.377Z,2.80
2023-03-20T04:02:34.332Z,2.97
2023-03-20T04:05:03.330Z,2.80
2023-03-20T04:07:30.503Z,3.10
2023-03-20T04:09:57.224Z,2.33
2023-03-20T04:12:32.944Z,3.47
2023-03-20T04:15:02.387Z,3.00
2023-03-20T04:17:29.783Z,3.80
2023-03-20T04:19:56.854Z,3.00
2023-03-20T04:22:23.623Z,3.30
2023-03-20T04:24:51.223Z,2.97
2023-03-20T04:27:18.531Z,2.80
2023-03-20T04:29:45.337Z,3.17
2023-03-20T04:32:12.109Z,3.00
2023-03-20T04:34:38.933Z,3.00
2023-03-20T04:37:08.265Z,2.47
2023-03-20T04:39:36.809Z,3.10
2023-03-20T04:42:05.158Z,2.70
2023-03-20T04:44:32.104Z,3.17
2023-03-20T04:46:58.928Z,3.23
2023-03-20T04:49:25.834Z,2.93
2023-03-20T04:51:53.150Z,3.03
2023-03-20T04:54:19.904Z,3.23
2023-03-20T04:56:46.695Z,2.70
2023-03-20T04:59:13.595Z,3.00
2023-03-20T05:01:40.412Z,2.83
2023-03-20T05:04:08.657Z,2.73
2023-03-20T05:06:35.905Z,2.70
2023-03-20T05:09:03.092Z,3.10
2023-03-20T05:11:29.851Z,4.07
2023-03-20T05:13:56.604Z,2.50
2023-03-20T05:16:23.687Z,2.60
2023-03-20T05:18:50.599Z,2.83
2023-03-20T05:21:17.417Z,2.53
2023-03-20T05:23:45.414Z,3.23
2023-03-20T05:26:12.275Z,3.30
2023-03-20T05:28:39.040Z,2.50
2023-03-20T05:31:06.088Z,2.77
2023-03-20T05:33:32.883Z,3.80
2023-03-20T05:35:59.644Z,2.73
2023-03-20T05:38:27.204Z,3.93
2023-03-20T05:41:00.877Z,2.83
2023-03-20T05:43:29.188Z,3.30
2023-03-20T05:45:56.902Z,3.43
2023-03-20T05:48:24.183Z,3.10
2023-03-20T05:50:51.023Z,3.60
2023-03-20T05:53:17.756Z,3.40
2023-03-20T05:55:44.892Z,3.33
2023-03-20T05:58:12.425Z,3.57
2023-03-20T06:00:39.760Z,3.47
2023-03-20T06:03:09.267Z,3.97
2023-03-20T06:05:36.785Z,3.07
2023-03-20T06:08:04.949Z,3.30
2023-03-20T06:10:31.698Z,3.33
2023-03-20T06:13:01.052Z,3.27
2023-03-20T06:15:28.672Z,3.80
2023-03-20T06:17:56.446Z,2.77
2023-03-20T06:20:24.105Z,3.33
2023-03-20T06:22:51.342Z,3.43
2023-03-20T06:25:19.317Z,3.20
2023-03-20T06:27:47.822Z,3.70
2023-03-20T06:30:15.674Z,3.70
2023-03-20T06:32:42.841Z,3.60
2023-03-20T06:35:10.521Z,3.50
2023-03-20T06:37:37.355Z,3.57
2023-03-20T06:40:04.875Z,2.70
2023-03-20T06:42:31.668Z,2.90
2023-03-20T06:44:58.411Z,3.63
2023-03-20T06:47:25.354Z,3.43
2023-03-20T06:49:52.140Z,3.27
2023-03-20T06:52:22.552Z,3.30
2023-03-20T06:54:51.045Z,3.83
2023-03-20T06:57:18.289Z,3.93
2023-03-20T06:59:45.253Z,3.73
2023-03-20T07:02:12.129Z,3.00
2023-03-20T07:04:39.230Z,4.30
2023-03-20T07:07:05.996Z,3.50
2023-03-20T07:09:33.274Z,3.33
2023-03-20T07:12:00.103Z,3.67
2023-03-20T07:14:26.899Z,3.30
2023-03-20T07:16:54.792Z,3.50
2023-03-20T07:19:21.731Z,3.83
2023-03-20T07:21:48.748Z,4.23
2023-03-20T07:24:15.472Z,3.50
2023-03-20T07:26:42.304Z,4.00
2023-03-20T07:29:09.028Z,4.00
2023-03-20T07:31:36.012Z,4.30
2023-03-20T07:34:02.849Z,4.73
2023-03-20T07:36:29.599Z,4.20
2023-03-20T07:38:56.361Z,5.07
2023-03-20T07:41:23.096Z,4.90
2023-03-20T07:43:49.780Z,4.17
2023-03-20T07:46:16.558Z,4.47
2023-03-20T07:48:43.459Z,6.10
2023-03-20T07:51:10.242Z,4.43
2023-03-20T07:53:37.076Z,5.03
2023-03-20T07:56:14.096Z,5.33
2023-03-20T07:58:40.981Z,4.70
2023-03-20T08:01:07.692Z,5.40
2023-03-20T08:03:34.498Z,6.43
2023-03-20T08:06:01.871Z,5.70
2023-03-20T08:08:28.725Z,5.33
2023-03-20T08:10:55.623Z,4.77
2023-03-20T08:13:22.323Z,4.97
2023-03-20T08:15:49.144Z,5.13
2023-03-20T08:18:15.911Z,5.10
2023-03-20T08:20:42.957Z,5.20
2023-03-20T08:23:09.687Z,5.20
2023-03-20T08:25:37.185Z,5.93
2023-03-20T08:28:04.493Z,5.97
2023-03-20T08:30:31.883Z,5.90
2023-03-20T08:32:59.108Z,5.40
2023-03-20T08:35:33.267Z,5.80
2023-03-20T08:38:01.109Z,6.00
2023-03-20T08:40:28.149Z,7.37
2023-03-20T08:42:55.552Z,5.33
2023-03-20T08:45:25.848Z,6.23
2023-03-20T08:47:53.138Z,5.20
2023-03-20T08:50:20.051Z,5.67
2023-03-20T08:52:47.120Z,5.37
2023-03-20T08:55:15.062Z,6.10
2023-03-20T08:57:42.363Z,5.77
2023-03-20T09:00:12.818Z,5.33
2023-03-20T09:02:39.887Z,5.47
2023-03-20T09:05:10.922Z,5.87
2023-03-20T09:07:37.787Z,5.90
2023-03-20T09:10:05.358Z,5.73
2023-03-20T09:12:32.802Z,5.80
2023-03-20T09:14:59.956Z,5.13
2023-03-20T09:17:26.798Z,5.30
2023-03-20T09:19:53.574Z,5.27
2023-03-20T09:22:20.783Z,5.23
2023-03-20T09:24:47.691Z,5.27
2023-03-20T09:27:14.683Z,5.20
2023-03-20T09:29:42.684Z,4.97
2023-03-20T09:32:14.290Z,4.10
2023-03-20T09:34:41.785Z,4.23
2023-03-20T09:37:08.826Z,4.63
2023-03-20T09:39:35.821Z,5.00
2023-03-20T09:42:21.150Z,4.10
2023-03-20T09:45:08.448Z,4.33
2023-03-20T09:47:37.956Z,3.97
2023-03-20T09:50:30.783Z,4.23
2023-03-20T09:53:45.761Z,3.93
2023-03-20T09:56:25.312Z,3.67
2023-03-20T09:59:01.455Z,4.03
2023-03-20T10:01:41.031Z,3.50
2023-03-20T10:04:11.977Z,3.33
2023-03-20T10:06:39.122Z,3.37
2023-03-20T10:09:32.469Z,16.50
2023-03-20T10:12:23.580Z,3.37
2023-03-20T10:15:13.267Z,3.43
2023-03-20T10:17:55.456Z,2.73
2023-03-20T10:20:40.628Z,2.90
2023-03-20T10:23:19.448Z,2.73
2023-03-20T10:25:52.698Z,3.10
2023-03-20T10:28:26.475Z,2.87
2023-03-20T10:31:17.895Z,2.70
2023-03-20T10:34:06.921Z,2.70
2023-03-20T10:36:48.612Z,2.50
2023-03-20T10:39:42.033Z,2.80
2023-03-20T10:42:36.369Z,2.40
2023-03-20T10:45:12.728Z,3.00
2023-03-20T10:47:42.665Z,2.90
2023-03-20T10:50:18.169Z,2.73
2023-03-20T10:52:49.353Z,2.27
2023-03-20T10:55:28.277Z,2.87
2023-03-20T10:58:19.672Z,3.00
2023-03-20T11:00:47.030Z,3.07
2023-03-20T11:03:22.759Z,2.67
2023-03-20T11:06:08.989Z,3.23
2023-03-20T11:08:40.928Z,3.03
2023-03-20T11:11:08.015Z,2.90
2023-03-20T11:13:38.277Z,2.70
2023-03-20T11:16:26.130Z,3.20
2023-03-20T11:18:54.076Z,2.90
2023-03-20T11:21:25.037Z,3.70
2023-03-20T11:23:52.596Z,3.23
2023-03-20T11:26:40.634Z,2.63
2023-03-20T11:29:13.167Z,2.50
2023-03-20T11:31:41.595Z,2.67
2023-03-20T11:34:11.308Z,2.70
2023-03-20T11:36:41.246Z,3.17
2023-03-20T11:39:14.459Z,3.13
2023-03-20T11:41:50.187Z,3.07
2023-03-20T11:44:34.380Z,2.67
2023-03-20T11:47:10.982Z,2.63
2023-03-20T11:49:56.195Z,2.70
2023-03-20T11:52:35.432Z,2.60
2023-03-20T11:55:07.122Z,2.30
2023-03-20T11:57:40.052Z,2.50
2023-03-20T12:00:24.727Z,2.50
2023-03-20T12:02:51.877Z,2.47
2023-03-20T12:05:36.720Z,2.20
2023-03-20T12:08:07.077Z,2.10
2023-03-20T12:10:39.624Z,2.67
2023-03-20T12:13:14.917Z,2.40
2023-03-20T12:15:47.688Z,2.63
2023-03-20T12:18:33.798Z,1.73
2023-03-20T12:21:08.519Z,2.10
2023-03-20T12:23:56.309Z,2.13
2023-03-20T12:26:35.108Z,1.90
2023-03-20T12:29:23.506Z,2.73
2023-03-20T12:31:58.598Z,2.23
2023-03-20T12:34:31.480Z,2.40
2023-03-20T12:36:58.351Z,2.27
2023-03-20T12:39:38.585Z,2.60
2023-03-20T12:42:14.453Z,2.80
2023-03-20T12:44:52.854Z,2.60
2023-03-20T12:47:49.796Z,3.07
2023-03-20T12:50:22.467Z,2.70
2023-03-20T12:53:21.716Z,2.80
2023-03-20T12:56:19.651Z,2.10
2023-03-20T12:58:52.949Z,2.57
2023-03-20T13:01:37.549Z,2.00
2023-03-20T13:04:29.212Z,1.80
2023-03-20T13:07:07.650Z,1.73
2023-03-20T13:09:58.884Z,1.60
2023-03-20T13:12:50.469Z,1.97
2023-03-20T13:15:38.703Z,1.60
2023-03-20T13:18:19.253Z,1.50
2023-03-20T13:20:56.959Z,1.33
2023-03-20T13:23:29.037Z,1.27
2023-03-20T13:26:18.673Z,1.30
2023-03-20T13:29:11.057Z,1.27
2023-03-20T13:31:37.808Z,1.00
2023-03-20T13:34:30.006Z,1.40
2023-03-20T13:37:22.768Z,1.10
2023-03-20T13:40:21.197Z,2.40
2023-03-20T13:42:47.876Z,1.50
2023-03-20T13:45:36.572Z,1.33
2023-03-20T13:48:45.292Z,1.47
2023-03-20T13:51:34.299Z,1.27
2023-03-20T13:54:19.590Z,1.13
2023-03-20T13:57:06.233Z,1.27
2023-03-20T13:59:39.016Z,1.50
2023-03-20T14:02:20.941Z,1.50
2023-03-20T14:04:52.293Z,1.47
2023-03-20T14:07:34.557Z,1.30
2023-03-20T14:10:23.251Z,1.47
2023-03-20T14:13:04.884Z,1.20
2023-03-20T14:15:37.245Z,1.70
2023-03-20T14:18:15.312Z,0.80
2023-03-20T14:20:43.985Z,1.00
2023-03-20T14:23:20.629Z,1.03
2023-03-20T14:25:48.443Z,0.87
2023-03-20T14:28:15.406Z,1.30
2023-03-20T14:30:47.556Z,1.37
2023-03-20T14:33:17.399Z,1.23
2023-03-20T14:35:48.401Z,1.40
2023-03-20T14:38:29.848Z,1.40
2023-03-20T14:41:18.236Z,1.70
2023-03-20T14:44:17.431Z,1.60
2023-03-20T14:46:53.908Z,1.40
2023-03-20T14:49:26.145Z,2.00
2023-03-20T14:52:00.980Z,1.60
2023-03-20T14:54:30.369Z,2.00
2023-03-20T14:57:19.964Z,1.43
2023-03-20T14:59:49.896Z,1.30
2023-03-20T15:02:29.835Z,1.20
2023-03-20T15:04:57.535Z,1.40
2023-03-20T15:07:28.127Z,1.57
2023-03-20T15:09:59.465Z,1.60
2023-03-20T15:12:36.319Z,1.43
2023-03-20T15:15:08.565Z,1.80
2023-03-20T15:17:38.894Z,1.63
2023-03-20T15:20:24.243Z,1.57
2023-03-20T15:22:59.120Z,1.20
2023-03-20T15:25:36.168Z,1.60
2023-03-20T15:28:06.334Z,1.10
2023-03-20T15:30:36.605Z,1.13
2023-03-20T15:33:04.252Z,1.27
2023-03-20T15:35:31.243Z,1.33
2023-03-20T15:38:04.341Z,1.37
2023-03-20T15:40:47.665Z,1.30
2023-03-20T15:43:24.381Z,1.27
2023-03-20T15:46:02.892Z,1.17
2023-03-20T15:48:37.034Z,1.20
2023-03-20T15:51:06.021Z,1.10
2023-03-20T15:53:38.546Z,1.53
2023-03-20T15:56:17.270Z,1.40
2023-03-20T15:58:46.023Z,1.10
2023-03-20T16:01:19.056Z,1.30
2023-03-20T16:03:46.484Z,1.20
2023-03-20T16:06:16.835Z,1.20
2023-03-20T16:08:46.080Z,1.70
2023-03-20T16:11:17.517Z,1.37
2023-03-20T16:13:47.309Z,1.50
2023-03-20T16:16:17.751Z,1.40
2023-03-20T16:18:47.843Z,1.60
2023-03-20T16:21:38.249Z,1.67
2023-03-20T16:24:18.557Z,1.40
2023-03-20T16:26:50.475Z,1.33
2023-03-20T16:29:18.996Z,1.33
2023-03-20T16:31:55.304Z,1.60
2023-03-20T16:34:26.086Z,1.50
2023-03-20T16:36:55.992Z,1.40
2023-03-20T16:39:27.064Z,1.13
2023-03-20T16:42:24.100Z,1.50
2023-03-20T16:44:56.565Z,1.13
2023-03-20T16:47:38.492Z,1.30
2023-03-20T16:50:19.213Z,1.20
2023-03-20T16:52:49.281Z,1.33
2023-03-20T16:55:22.398Z,1.30
2023-03-20T16:57:52.021Z,1.33
2023-03-20T17:00:23.620Z,1.43
2023-03-20T17:02:57.851Z,1.63
2023-03-20T17:05:45.234Z,1.67
2023-03-20T17:08:15.322Z,1.80
2023-03-20T17:10:53.010Z,1.87
2023-03-20T17:13:19.929Z,1.77
2023-03-20T17:15:46.773Z,1.87
2023-03-20T17:18:14.505Z,2.00
2023-03-20T17:20:41.700Z,2.50
2023-03-20T17:23:19.365Z,2.20
2023-03-20T17:25:46.197Z,1.87
2023-03-20T17:28:20.429Z,1.80
2023-03-20T17:30:48.603Z,1.70
2023-03-20T17:33:17.009Z,2.23
2023-03-20T17:35:44.082Z,2.20
2023-03-20T17:38:22.892Z,2.03
2023-03-20T17:40:51.394Z,2.30
2023-03-20T17:43:19.039Z,2.10
2023-03-20T17:45:47.511Z,2.00
2023-03-20T17:48:20.970Z,2.03
2023-03-20T17:50:52.571Z,1.90
2023-03-20T17:53:28.950Z,1.10
2023-03-20T17:55:55.716Z,1.30
2023-03-20T17:58:24.002Z,1.40
2023-03-20T18:00:52.920Z,1.27
2023-03-20T18:03:20.536Z,1.27
2023-03-20T18:05:51.495Z,1.20
2023-03-20T18:08:21.364Z,1.30
2023-03-20T18:10:53.120Z,1.40
2023-03-20T18:13:21.443Z,1.00
2023-03-20T18:15:54.216Z,1.20
2023-03-20T18:18:23.752Z,1.40
2023-03-20T18:20:51.854Z,1.20
2023-03-20T18:23:18.736Z,1.07
2023-03-20T18:25:45.672Z,1.47
2023-03-20T18:28:22.526Z,1.10
2023-03-20T18:30:52.191Z,1.40
2023-03-20T18:33:19.510Z,1.50
2023-03-20T18:35:46.975Z,1.30
2023-03-20T18:38:14.572Z,1.63
2023-03-20T18:40:43.181Z,1.60
2023-03-20T18:43:10.990Z,1.33
2023-03-20T18:45:39.174Z,1.50
2023-03-20T18:48:07.173Z,1.20
2023-03-20T18:50:40.931Z,1.43
2023-03-20T18:53:09.856Z,1.47
2023-03-20T18:55:38.293Z,1.33
2023-03-20T18:58:06.284Z,1.37
2023-03-20T19:00:42.446Z,1.33
2023-03-20T19:03:11.049Z,1.90
2023-03-20T19:05:38.566Z,1.80
2023-03-20T19:08:05.750Z,1.80
2023-03-20T19:10:38.788Z,1.93
2023-03-20T19:13:07.521Z,2.30
2023-03-20T19:15:36.772Z,2.77
2023-03-20T19:18:06.376Z,3.20
2023-03-20T19:20:40.634Z,3.40
2023-03-20T19:23:16.575Z,3.80
2023-03-20T19:25:46.107Z,4.03
2023-03-20T19:28:37.855Z,5.00
2023-03-20T19:31:06.544Z,4.80
2023-03-20T19:33:33.489Z,4.63
2023-03-20T19:36:05.858Z,5.73
2023-03-20T19:38:34.112Z,5.63
2023-03-20T19:41:02.591Z,5.83
2023-03-20T19:43:29.559Z,5.60
2023-03-20T19:45:59.320Z,5.33
2023-03-20T19:48:46.206Z,5.40
2023-03-20T19:51:19.332Z,6.07
2023-03-20T19:53:47.082Z,5.70
2023-03-20T19:56:15.201Z,6.53
2023-03-20T19:58:42.539Z,5.57
2023-03-20T20:01:18.887Z,5.57
2023-03-20T20:03:46.132Z,4.80
2023-03-20T20:06:12.967Z,4.50
2023-03-20T20:08:48.781Z,4.00
2023-03-20T20:11:18.200Z,4.50
2023-03-20T20:14:07.075Z,4.60
2023-03-20T20:16:35.293Z,4.50
2023-03-20T20:19:02.627Z,4.90
2023-03-20T20:24:16.397Z,4.90
2023-03-20T20:26:53.201Z,4.33
2023-03-20T20:29:22.467Z,3.83
2023-03-20T20:31:49.379Z,3.97
2023-03-20T20:39:50.453Z,4.70
2023-03-20T20:42:17.382Z,4.23
2023-03-20T20:44:44.333Z,4.30
2023-03-20T20:47:11.440Z,4.90
2023-03-20T20:49:38.228Z,4.77
2023-03-20T20:52:05.253Z,4.60
2023-03-20T20:54:34.037Z,5.00
2023-03-20T20:57:01.720Z,5.80
2023-03-20T20:59:28.918Z,4.70
2023-03-20T21:01:55.879Z,5.13
2023-03-20T21:04:22.694Z,4.60
2023-03-20T21:09:36.232Z,4.57
2023-03-20T21:12:04.043Z,5.47
2023-03-20T21:14:30.898Z,5.53
2023-03-20T21:17:01.175Z,5.50
2023-03-20T21:19:34.185Z,6.10
2023-03-20T21:22:01.198Z,5.83
2023-03-20T21:24:33.997Z,4.57
2023-03-20T21:27:07.975Z,5.43
2023-03-20T21:29:34.927Z,4.87
2023-03-20T21:32:01.820Z,4.67
2023-03-20T21:34:31.771Z,4.60
2023-03-20T21:37:00.073Z,5.70
2023-03-20T21:39:30.359Z,5.57
2023-03-20T21:41:58.324Z,4.60
2023-03-20T21:45:05.776Z,5.10
2023-03-20T21:59:02.933Z,4.90
2023-03-20T22:18:28.565Z,4.50
2023-03-20T22:21:29.996Z,5.20
2023-03-20T22:29:45.265Z,4.33
2023-03-20T22:46:05.609Z,4.57
2023-03-20T22:48:34.743Z,4.50
2023-03-20T22:51:01.500Z,4.67
2023-03-20T22:53:28.517Z,4.00
2023-03-20T22:55:55.280Z,4.17
2023-03-20T22:58:22.193Z,3.97
2023-03-20T23:00:48.969Z,4.03
2023-03-20T23:03:37.645Z,4.07
2023-03-20T23:06:24.746Z,4.60
2023-03-20T23:08:56.563Z,4.13
2023-03-20T23:11:25.915Z,3.67
2023-03-20T23:13:53.263Z,3.63
2023-03-20T23:16:20.578Z,3.73
2023-03-20T23:18:47.416Z,3.93
2023-03-20T23:21:14.160Z,3.67
2023-03-20T23:23:40.917Z,3.77
2023-03-20T23:26:12.030Z,3.70
2023-03-20T23:28:42.549Z,3.87
2023-03-20T23:31:15.148Z,4.17
2023-03-20T23:33:43.849Z,3.27
2023-03-20T23:36:21.450Z,3.77
2023-03-20T23:38:51.777Z,3.70
2023-03-20T23:41:19.099Z,4.10
2023-03-20T23:43:45.999Z,3.37
2023-03-20T23:46:14.590Z,3.77
2023-03-20T23:48:41.451Z,3.90
2023-03-20T23:51:08.512Z,3.77
2023-03-20T23:53:35.350Z,4.17
2023-03-20T23:56:02.072Z,3.60
2023-03-20T23:58:29.182Z,3.87
